sensor_id;sensor_type;location;lat;lon;timestamp;P1;durP1;ratioP1;P2;durP2;ratioP2
43580;SDS011;29175;51.030;4.606;2022-08-19T00:00:29;21.20;;;10.93;;
43580;SDS011;29175;51.030;4.606;2022-08-19T00:02:57;22.98;;;10.52;;
43580;SDS011;29175;51.030;4.606;2022-08-19T00:05:25;25.67;;;11.90;;
43580;SDS011;29175;51.030;4.606;2022-08-19T00:07:53;23.55;;;12.02;;
43580;SDS011;29175;51.030;4.606;2022-08-19T00:10:21;24.88;;;12.27;;
43580;SDS011;29175;51.030;4.606;2022-08-19T00:12:47;24.35;;;10.90;;
43580;SDS011;29175;51.030;4.606;2022-08-19T00:15:14;20.05;;;10.68;;
43580;SDS011;29175;51.030;4.606;2022-08-19T00:17:42;19.45;;;11.10;;
43580;SDS011;29175;51.030;4.606;2022-08-19T00:20:14;25.42;;;11.10;;
43580;SDS011;29175;51.030;4.606;2022-08-19T00:22:42;22.02;;;11.75;;
43580;SDS011;29175;51.030;4.606;2022-08-19T00:25:09;22.10;;;11.00;;
43580;SDS011;29175;51.030;4.606;2022-08-19T00:27:36;20.85;;;10.52;;
43580;SDS011;29175;51.030;4.606;2022-08-19T00:30:03;23.42;;;11.60;;
43580;SDS011;29175;51.030;4.606;2022-08-19T00:32:32;19.73;;;11.23;;
43580;SDS011;29175;51.030;4.606;2022-08-19T00:34:59;21.05;;;10.80;;
43580;SDS011;29175;51.030;4.606;2022-08-19T00:37:26;23.23;;;11.48;;
43580;SDS011;29175;51.030;4.606;2022-08-19T00:39:53;20.58;;;11.57;;
43580;SDS011;29175;51.030;4.606;2022-08-19T00:42:23;20.63;;;10.93;;
43580;SDS011;29175;51.030;4.606;2022-08-19T00:44:53;22.27;;;11.93;;
43580;SDS011;29175;51.030;4.606;2022-08-19T00:47:18;23.85;;;12.55;;
43580;SDS011;29175;51.030;4.606;2022-08-19T00:49:48;26.23;;;12.35;;
43580;SDS011;29175;51.030;4.606;2022-08-19T00:52:24;20.25;;;11.30;;
43580;SDS011;29175;51.030;4.606;2022-08-19T00:54:54;27.60;;;12.65;;
43580;SDS011;29175;51.030;4.606;2022-08-19T00:57:24;27.77;;;13.75;;
43580;SDS011;29175;51.030;4.606;2022-08-19T01:00:00;28.48;;;13.38;;
43580;SDS011;29175;51.030;4.606;2022-08-19T01:02:30;22.25;;;11.95;;
43580;SDS011;29175;51.030;4.606;2022-08-19T01:04:57;24.63;;;12.23;;
43580;SDS011;29175;51.030;4.606;2022-08-19T01:07:26;26.92;;;12.90;;
43580;SDS011;29175;51.030;4.606;2022-08-19T01:09:52;30.98;;;13.65;;
43580;SDS011;29175;51.030;4.606;2022-08-19T01:12:19;30.33;;;13.95;;
43580;SDS011;29175;51.030;4.606;2022-08-19T01:14:47;32.47;;;14.48;;
43580;SDS011;29175;51.030;4.606;2022-08-19T01:17:14;30.45;;;14.88;;
43580;SDS011;29175;51.030;4.606;2022-08-19T01:19:44;26.05;;;14.13;;
43580;SDS011;29175;51.030;4.606;2022-08-19T01:24:54;32.53;;;14.27;;
43580;SDS011;29175;51.030;4.606;2022-08-19T01:27:21;34.47;;;16.50;;
43580;SDS011;29175;51.030;4.606;2022-08-19T01:29:47;34.55;;;15.75;;
43580;SDS011;29175;51.030;4.606;2022-08-19T01:32:15;40.90;;;17.63;;
43580;SDS011;29175;51.030;4.606;2022-08-19T01:34:42;33.22;;;15.50;;
43580;SDS011;29175;51.030;4.606;2022-08-19T01:37:15;42.80;;;17.48;;
43580;SDS011;29175;51.030;4.606;2022-08-19T01:39:40;44.13;;;19.02;;
43580;SDS011;29175;51.030;4.606;2022-08-19T01:42:08;44.45;;;20.05;;
43580;SDS011;29175;51.030;4.606;2022-08-19T01:44:37;47.03;;;19.63;;
43580;SDS011;29175;51.030;4.606;2022-08-19T01:47:07;41.73;;;18.73;;
43580;SDS011;29175;51.030;4.606;2022-08-19T01:49:35;53.75;;;23.05;;
43580;SDS011;29175;51.030;4.606;2022-08-19T01:52:02;52.85;;;22.75;;
43580;SDS011;29175;51.030;4.606;2022-08-19T01:54:31;50.85;;;20.00;;
43580;SDS011;29175;51.030;4.606;2022-08-19T01:57:00;46.38;;;20.75;;
43580;SDS011;29175;51.030;4.606;2022-08-19T01:59:31;65.32;;;24.05;;
43580;SDS011;29175;51.030;4.606;2022-08-19T02:01:58;66.78;;;25.55;;
43580;SDS011;29175;51.030;4.606;2022-08-19T02:04:24;64.80;;;25.85;;
43580;SDS011;29175;51.030;4.606;2022-08-19T02:06:53;68.68;;;27.80;;
43580;SDS011;29175;51.030;4.606;2022-08-19T02:09:20;67.25;;;27.55;;
43580;SDS011;29175;51.030;4.606;2022-08-19T02:11:47;63.20;;;26.35;;
43580;SDS011;29175;51.030;4.606;2022-08-19T02:14:13;74.35;;;28.83;;
43580;SDS011;29175;51.030;4.606;2022-08-19T02:16:39;69.70;;;28.17;;
43580;SDS011;29175;51.030;4.606;2022-08-19T02:19:05;80.90;;;29.65;;
43580;SDS011;29175;51.030;4.606;2022-08-19T02:21:32;77.50;;;29.80;;
43580;SDS011;29175;51.030;4.606;2022-08-19T02:23:59;67.22;;;26.85;;
43580;SDS011;29175;51.030;4.606;2022-08-19T02:26:25;63.85;;;26.08;;
43580;SDS011;29175;51.030;4.606;2022-08-19T02:28:52;76.03;;;28.75;;
43580;SDS011;29175;51.030;4.606;2022-08-19T02:31:21;76.80;;;30.20;;
43580;SDS011;29175;51.030;4.606;2022-08-19T02:33:49;73.53;;;28.88;;
43580;SDS011;29175;51.030;4.606;2022-08-19T02:36:16;64.70;;;23.40;;
43580;SDS011;29175;51.030;4.606;2022-08-19T02:38:42;61.25;;;24.42;;
43580;SDS011;29175;51.030;4.606;2022-08-19T02:41:17;60.95;;;25.48;;
43580;SDS011;29175;51.030;4.606;2022-08-19T02:43:46;67.50;;;25.65;;
43580;SDS011;29175;51.030;4.606;2022-08-19T02:46:14;68.38;;;26.40;;
43580;SDS011;29175;51.030;4.606;2022-08-19T02:48:43;73.28;;;28.10;;
43580;SDS011;29175;51.030;4.606;2022-08-19T02:51:15;73.50;;;28.60;;
43580;SDS011;29175;51.030;4.606;2022-08-19T02:53:42;75.13;;;28.85;;
43580;SDS011;29175;51.030;4.606;2022-08-19T02:56:08;79.38;;;28.67;;
43580;SDS011;29175;51.030;4.606;2022-08-19T02:58:35;73.82;;;29.63;;
43580;SDS011;29175;51.030;4.606;2022-08-19T03:01:02;78.07;;;29.80;;
43580;SDS011;29175;51.030;4.606;2022-08-19T03:03:30;64.22;;;25.75;;
43580;SDS011;29175;51.030;4.606;2022-08-19T03:06:10;67.95;;;26.67;;
43580;SDS011;29175;51.030;4.606;2022-08-19T03:08:40;79.57;;;28.52;;
43580;SDS011;29175;51.030;4.606;2022-08-19T03:11:14;75.90;;;28.70;;
43580;SDS011;29175;51.030;4.606;2022-08-19T03:13:43;82.20;;;30.30;;
43580;SDS011;29175;51.030;4.606;2022-08-19T03:16:11;75.13;;;28.77;;
43580;SDS011;29175;51.030;4.606;2022-08-19T03:18:38;80.05;;;29.70;;
43580;SDS011;29175;51.030;4.606;2022-08-19T03:21:05;80.65;;;29.40;;
43580;SDS011;29175;51.030;4.606;2022-08-19T03:23:31;75.82;;;28.67;;
43580;SDS011;29175;51.030;4.606;2022-08-19T03:25:57;74.80;;;28.17;;
43580;SDS011;29175;51.030;4.606;2022-08-19T03:28:23;81.50;;;29.73;;
43580;SDS011;29175;51.030;4.606;2022-08-19T03:30:59;71.80;;;28.70;;
43580;SDS011;29175;51.030;4.606;2022-08-19T03:33:27;70.55;;;26.50;;
43580;SDS011;29175;51.030;4.606;2022-08-19T03:36:05;84.00;;;30.10;;
43580;SDS011;29175;51.030;4.606;2022-08-19T03:38:33;68.85;;;27.58;;
43580;SDS011;29175;51.030;4.606;2022-08-19T03:41:08;79.22;;;30.15;;
43580;SDS011;29175;51.030;4.606;2022-08-19T03:43:38;78.15;;;29.13;;
43580;SDS011;29175;51.030;4.606;2022-08-19T03:46:09;79.82;;;28.30;;
43580;SDS011;29175;51.030;4.606;2022-08-19T03:48:39;65.88;;;25.77;;
43580;SDS011;29175;51.030;4.606;2022-08-19T03:51:07;83.40;;;29.30;;
43580;SDS011;29175;51.030;4.606;2022-08-19T03:53:40;84.95;;;31.00;;
43580;SDS011;29175;51.030;4.606;2022-08-19T03:56:05;77.10;;;30.77;;
43580;SDS011;29175;51.030;4.606;2022-08-19T03:58:33;75.55;;;28.70;;
43580;SDS011;29175;51.030;4.606;2022-08-19T04:00:59;76.30;;;28.85;;
43580;SDS011;29175;51.030;4.606;2022-08-19T04:03:25;79.57;;;29.35;;
43580;SDS011;29175;51.030;4.606;2022-08-19T04:05:51;81.15;;;30.55;;
43580;SDS011;29175;51.030;4.606;2022-08-19T04:08:20;83.72;;;29.17;;
43580;SDS011;29175;51.030;4.606;2022-08-19T04:10:48;78.22;;;29.95;;
43580;SDS011;29175;51.030;4.606;2022-08-19T04:13:16;76.90;;;28.20;;
43580;SDS011;29175;51.030;4.606;2022-08-19T04:15:43;61.88;;;25.95;;
43580;SDS011;29175;51.030;4.606;2022-08-19T04:18:12;83.95;;;28.77;;
43580;SDS011;29175;51.030;4.606;2022-08-19T04:20:46;64.97;;;24.80;;
43580;SDS011;29175;51.030;4.606;2022-08-19T04:23:13;67.18;;;25.75;;
43580;SDS011;29175;51.030;4.606;2022-08-19T04:25:43;69.78;;;26.25;;
43580;SDS011;29175;51.030;4.606;2022-08-19T04:28:12;67.50;;;25.77;;
43580;SDS011;29175;51.030;4.606;2022-08-19T04:30:40;64.50;;;25.17;;
43580;SDS011;29175;51.030;4.606;2022-08-19T04:33:10;65.90;;;24.98;;
43580;SDS011;29175;51.030;4.606;2022-08-19T04:35:39;71.97;;;24.87;;
43580;SDS011;29175;51.030;4.606;2022-08-19T04:38:10;66.05;;;25.15;;
43580;SDS011;29175;51.030;4.606;2022-08-19T04:40:40;65.97;;;24.23;;
43580;SDS011;29175;51.030;4.606;2022-08-19T04:45:55;66.93;;;25.17;;
43580;SDS011;29175;51.030;4.606;2022-08-19T04:48:22;62.40;;;23.00;;
43580;SDS011;29175;51.030;4.606;2022-08-19T04:53:31;60.65;;;21.80;;
43580;SDS011;29175;51.030;4.606;2022-08-19T04:56:02;59.03;;;23.65;;
43580;SDS011;29175;51.030;4.606;2022-08-19T04:58:32;54.60;;;23.13;;
43580;SDS011;29175;51.030;4.606;2022-08-19T05:01:00;62.97;;;21.58;;
43580;SDS011;29175;51.030;4.606;2022-08-19T05:03:26;56.95;;;21.83;;
43580;SDS011;29175;51.030;4.606;2022-08-19T05:05:52;59.42;;;22.15;;
43580;SDS011;29175;51.030;4.606;2022-08-19T05:08:20;56.67;;;22.40;;
43580;SDS011;29175;51.030;4.606;2022-08-19T05:10:50;56.63;;;21.10;;
43580;SDS011;29175;51.030;4.606;2022-08-19T05:13:18;50.92;;;21.38;;
43580;SDS011;29175;51.030;4.606;2022-08-19T05:15:57;53.88;;;20.55;;
43580;SDS011;29175;51.030;4.606;2022-08-19T05:21:13;60.83;;;21.63;;
43580;SDS011;29175;51.030;4.606;2022-08-19T05:24:01;54.60;;;19.58;;
43580;SDS011;29175;51.030;4.606;2022-08-19T05:26:27;47.40;;;17.50;;
43580;SDS011;29175;51.030;4.606;2022-08-19T05:28:53;49.13;;;19.13;;
43580;SDS011;29175;51.030;4.606;2022-08-19T05:31:21;52.20;;;19.23;;
43580;SDS011;29175;51.030;4.606;2022-08-19T05:33:47;46.95;;;18.52;;
43580;SDS011;29175;51.030;4.606;2022-08-19T05:36:20;51.45;;;18.73;;
43580;SDS011;29175;51.030;4.606;2022-08-19T05:38:46;42.70;;;17.50;;
43580;SDS011;29175;51.030;4.606;2022-08-19T05:41:14;38.97;;;16.20;;
43580;SDS011;29175;51.030;4.606;2022-08-19T05:43:42;46.47;;;17.45;;
43580;SDS011;29175;51.030;4.606;2022-08-19T05:46:15;42.83;;;15.82;;
43580;SDS011;29175;51.030;4.606;2022-08-19T05:48:45;39.60;;;15.50;;
43580;SDS011;29175;51.030;4.606;2022-08-19T05:51:13;37.88;;;15.07;;
43580;SDS011;29175;51.030;4.606;2022-08-19T05:53:40;35.25;;;14.63;;
43580;SDS011;29175;51.030;4.606;2022-08-19T05:56:10;33.65;;;14.32;;
43580;SDS011;29175;51.030;4.606;2022-08-19T05:58:37;40.00;;;14.00;;
43580;SDS011;29175;51.030;4.606;2022-08-19T06:01:04;32.15;;;12.75;;
43580;SDS011;29175;51.030;4.606;2022-08-19T06:03:35;28.88;;;12.40;;
43580;SDS011;29175;51.030;4.606;2022-08-19T06:06:03;33.33;;;12.73;;
43580;SDS011;29175;51.030;4.606;2022-08-19T06:08:31;35.17;;;12.70;;
43580;SDS011;29175;51.030;4.606;2022-08-19T06:10:57;30.88;;;12.05;;
43580;SDS011;29175;51.030;4.606;2022-08-19T06:13:37;30.60;;;11.48;;
43580;SDS011;29175;51.030;4.606;2022-08-19T06:16:03;22.30;;;9.43;;
43580;SDS011;29175;51.030;4.606;2022-08-19T06:18:31;26.65;;;10.93;;
43580;SDS011;29175;51.030;4.606;2022-08-19T06:20:59;23.42;;;10.18;;
43580;SDS011;29175;51.030;4.606;2022-08-19T06:23:28;27.00;;;9.23;;
43580;SDS011;29175;51.030;4.606;2022-08-19T06:25:54;22.13;;;9.07;;
43580;SDS011;29175;51.030;4.606;2022-08-19T06:28:21;25.20;;;9.65;;
43580;SDS011;29175;51.030;4.606;2022-08-19T06:30:48;23.65;;;8.82;;
43580;SDS011;29175;51.030;4.606;2022-08-19T06:33:16;23.75;;;9.18;;
43580;SDS011;29175;51.030;4.606;2022-08-19T06:35:43;22.05;;;8.43;;
43580;SDS011;29175;51.030;4.606;2022-08-19T06:38:08;19.10;;;8.45;;
43580;SDS011;29175;51.030;4.606;2022-08-19T06:40:35;19.27;;;7.82;;
43580;SDS011;29175;51.030;4.606;2022-08-19T06:43:02;29.92;;;8.60;;
43580;SDS011;29175;51.030;4.606;2022-08-19T06:45:29;26.33;;;8.23;;
43580;SDS011;29175;51.030;4.606;2022-08-19T06:47:56;32.55;;;8.85;;
43580;SDS011;29175;51.030;4.606;2022-08-19T06:50:22;18.42;;;7.50;;
43580;SDS011;29175;51.030;4.606;2022-08-19T06:52:49;21.58;;;7.60;;
43580;SDS011;29175;51.030;4.606;2022-08-19T06:55:16;25.38;;;7.97;;
43580;SDS011;29175;51.030;4.606;2022-08-19T06:57:44;22.08;;;7.47;;
43580;SDS011;29175;51.030;4.606;2022-08-19T07:00:11;28.08;;;8.18;;
43580;SDS011;29175;51.030;4.606;2022-08-19T07:02:40;22.52;;;7.07;;
43580;SDS011;29175;51.030;4.606;2022-08-19T07:05:08;20.27;;;7.00;;
43580;SDS011;29175;51.030;4.606;2022-08-19T07:07:35;17.98;;;7.03;;
43580;SDS011;29175;51.030;4.606;2022-08-19T07:10:02;24.80;;;7.88;;
43580;SDS011;29175;51.030;4.606;2022-08-19T07:12:30;23.92;;;7.28;;
43580;SDS011;29175;51.030;4.606;2022-08-19T07:15:00;19.50;;;7.18;;
43580;SDS011;29175;51.030;4.606;2022-08-19T07:17:29;20.98;;;6.93;;
43580;SDS011;29175;51.030;4.606;2022-08-19T07:19:58;20.38;;;7.10;;
43580;SDS011;29175;51.030;4.606;2022-08-19T07:22:24;26.10;;;7.35;;
43580;SDS011;29175;51.030;4.606;2022-08-19T07:24:49;28.05;;;8.10;;
43580;SDS011;29175;51.030;4.606;2022-08-19T07:27:16;19.40;;;7.32;;
43580;SDS011;29175;51.030;4.606;2022-08-19T07:29:41;24.65;;;8.60;;
43580;SDS011;29175;51.030;4.606;2022-08-19T07:32:07;22.55;;;7.32;;
43580;SDS011;29175;51.030;4.606;2022-08-19T07:34:34;17.50;;;6.70;;
43580;SDS011;29175;51.030;4.606;2022-08-19T07:37:03;23.08;;;7.55;;
43580;SDS011;29175;51.030;4.606;2022-08-19T07:39:33;17.50;;;7.55;;
43580;SDS011;29175;51.030;4.606;2022-08-19T07:42:01;17.85;;;6.95;;
43580;SDS011;29175;51.030;4.606;2022-08-19T07:44:32;16.23;;;6.53;;
43580;SDS011;29175;51.030;4.606;2022-08-19T07:46:58;21.52;;;7.20;;
43580;SDS011;29175;51.030;4.606;2022-08-19T07:49:25;17.05;;;6.40;;
43580;SDS011;29175;51.030;4.606;2022-08-19T07:52:03;18.08;;;7.00;;
43580;SDS011;29175;51.030;4.606;2022-08-19T07:54:31;17.48;;;6.18;;
43580;SDS011;29175;51.030;4.606;2022-08-19T07:57:00;14.40;;;6.38;;
43580;SDS011;29175;51.030;4.606;2022-08-19T07:59:27;14.75;;;6.65;;
43580;SDS011;29175;51.030;4.606;2022-08-19T08:01:56;16.70;;;6.97;;
43580;SDS011;29175;51.030;4.606;2022-08-19T08:04:25;14.60;;;6.55;;
43580;SDS011;29175;51.030;4.606;2022-08-19T08:07:10;12.60;;;6.13;;
43580;SDS011;29175;51.030;4.606;2022-08-19T08:09:54;17.42;;;6.68;;
43580;SDS011;29175;51.030;4.606;2022-08-19T08:12:27;13.27;;;5.95;;
43580;SDS011;29175;51.030;4.606;2022-08-19T08:15:02;12.70;;;6.18;;
43580;SDS011;29175;51.030;4.606;2022-08-19T08:17:33;15.43;;;6.93;;
43580;SDS011;29175;51.030;4.606;2022-08-19T08:19:59;14.50;;;6.03;;
43580;SDS011;29175;51.030;4.606;2022-08-19T08:22:25;12.70;;;5.88;;
43580;SDS011;29175;51.030;4.606;2022-08-19T08:25:11;17.35;;;6.43;;
43580;SDS011;29175;51.030;4.606;2022-08-19T08:27:44;21.55;;;7.40;;
43580;SDS011;29175;51.030;4.606;2022-08-19T08:30:13;13.75;;;5.78;;
43580;SDS011;29175;51.030;4.606;2022-08-19T08:35:07;13.85;;;5.43;;
43580;SDS011;29175;51.030;4.606;2022-08-19T08:37:36;10.63;;;4.90;;
43580;SDS011;29175;51.030;4.606;2022-08-19T08:40:06;15.95;;;5.57;;
43580;SDS011;29175;51.030;4.606;2022-08-19T08:42:58;15.75;;;5.00;;
43580;SDS011;29175;51.030;4.606;2022-08-19T08:45:30;15.80;;;4.60;;
43580;SDS011;29175;51.030;4.606;2022-08-19T08:48:01;12.30;;;4.30;;
43580;SDS011;29175;51.030;4.606;2022-08-19T08:50:33;13.45;;;5.05;;
43580;SDS011;29175;51.030;4.606;2022-08-19T08:53:05;10.80;;;4.53;;
43580;SDS011;29175;51.030;4.606;2022-08-19T08:55:32;9.35;;;4.15;;
43580;SDS011;29175;51.030;4.606;2022-08-19T08:58:06;10.68;;;4.30;;
43580;SDS011;29175;51.030;4.606;2022-08-19T09:00:43;6.60;;;3.67;;
43580;SDS011;29175;51.030;4.606;2022-08-19T09:06:04;10.90;;;3.90;;
43580;SDS011;29175;51.030;4.606;2022-08-19T09:08:48;9.30;;;4.00;;
43580;SDS011;29175;51.030;4.606;2022-08-19T09:14:34;8.02;;;4.03;;
43580;SDS011;29175;51.030;4.606;2022-08-19T09:17:10;10.77;;;4.53;;
43580;SDS011;29175;51.030;4.606;2022-08-19T09:19:46;11.07;;;4.50;;
43580;SDS011;29175;51.030;4.606;2022-08-19T09:22:13;12.30;;;4.55;;
43580;SDS011;29175;51.030;4.606;2022-08-19T09:24:39;9.40;;;4.20;;
43580;SDS011;29175;51.030;4.606;2022-08-19T09:27:05;7.32;;;3.42;;
43580;SDS011;29175;51.030;4.606;2022-08-19T09:29:31;9.35;;;3.22;;
43580;SDS011;29175;51.030;4.606;2022-08-19T09:31:56;7.80;;;3.85;;
43580;SDS011;29175;51.030;4.606;2022-08-19T09:34:22;8.27;;;4.20;;
43580;SDS011;29175;51.030;4.606;2022-08-19T09:36:48;11.52;;;4.20;;
43580;SDS011;29175;51.030;4.606;2022-08-19T09:39:19;8.77;;;3.90;;
43580;SDS011;29175;51.030;4.606;2022-08-19T09:41:45;9.30;;;3.83;;
43580;SDS011;29175;51.030;4.606;2022-08-19T09:44:10;12.90;;;4.10;;
43580;SDS011;29175;51.030;4.606;2022-08-19T09:46:37;12.95;;;4.47;;
43580;SDS011;29175;51.030;4.606;2022-08-19T09:49:03;12.18;;;4.50;;
43580;SDS011;29175;51.030;4.606;2022-08-19T09:51:31;9.35;;;4.15;;
43580;SDS011;29175;51.030;4.606;2022-08-19T09:54:01;10.40;;;4.82;;
43580;SDS011;29175;51.030;4.606;2022-08-19T09:56:28;9.05;;;4.50;;
43580;SDS011;29175;51.030;4.606;2022-08-19T09:58:57;9.02;;;4.50;;
43580;SDS011;29175;51.030;4.606;2022-08-19T10:01:26;9.80;;;4.68;;
43580;SDS011;29175;51.030;4.606;2022-08-19T10:03:54;9.23;;;4.67;;
43580;SDS011;29175;51.030;4.606;2022-08-19T10:06:21;9.48;;;4.45;;
43580;SDS011;29175;51.030;4.606;2022-08-19T10:08:52;8.77;;;4.10;;
43580;SDS011;29175;51.030;4.606;2022-08-19T10:11:19;11.52;;;4.30;;
43580;SDS011;29175;51.030;4.606;2022-08-19T10:13:46;14.27;;;4.80;;
43580;SDS011;29175;51.030;4.606;2022-08-19T10:16:14;7.90;;;3.75;;
43580;SDS011;29175;51.030;4.606;2022-08-19T10:18:44;11.18;;;4.38;;
43580;SDS011;29175;51.030;4.606;2022-08-19T10:21:12;10.00;;;4.57;;
43580;SDS011;29175;51.030;4.606;2022-08-19T10:23:40;12.15;;;4.25;;
43580;SDS011;29175;51.030;4.606;2022-08-19T10:26:15;12.35;;;4.43;;
43580;SDS011;29175;51.030;4.606;2022-08-19T10:28:44;8.95;;;3.72;;
43580;SDS011;29175;51.030;4.606;2022-08-19T10:31:13;12.02;;;4.68;;
43580;SDS011;29175;51.030;4.606;2022-08-19T10:33:47;11.00;;;4.45;;
43580;SDS011;29175;51.030;4.606;2022-08-19T10:36:14;8.77;;;4.63;;
43580;SDS011;29175;51.030;4.606;2022-08-19T10:38:44;10.55;;;4.57;;
43580;SDS011;29175;51.030;4.606;2022-08-19T10:41:15;9.98;;;4.20;;
43580;SDS011;29175;51.030;4.606;2022-08-19T10:43:43;11.63;;;4.70;;
43580;SDS011;29175;51.030;4.606;2022-08-19T10:46:13;8.68;;;3.67;;
43580;SDS011;29175;51.030;4.606;2022-08-19T10:48:41;11.27;;;4.47;;
43580;SDS011;29175;51.030;4.606;2022-08-19T10:51:09;10.18;;;4.28;;
43580;SDS011;29175;51.030;4.606;2022-08-19T10:53:54;13.20;;;4.13;;
43580;SDS011;29175;51.030;4.606;2022-08-19T10:56:21;9.43;;;4.18;;
43580;SDS011;29175;51.030;4.606;2022-08-19T10:59:06;11.35;;;4.63;;
43580;SDS011;29175;51.030;4.606;2022-08-19T11:01:32;8.35;;;3.88;;
43580;SDS011;29175;51.030;4.606;2022-08-19T11:04:00;8.15;;;3.55;;
43580;SDS011;29175;51.030;4.606;2022-08-19T11:06:28;8.17;;;3.43;;
43580;SDS011;29175;51.030;4.606;2022-08-19T11:08:55;8.35;;;3.45;;
43580;SDS011;29175;51.030;4.606;2022-08-19T11:11:22;8.65;;;3.30;;
43580;SDS011;29175;51.030;4.606;2022-08-19T11:13:48;8.15;;;3.10;;
43580;SDS011;29175;51.030;4.606;2022-08-19T11:16:16;7.53;;;3.50;;
43580;SDS011;29175;51.030;4.606;2022-08-19T11:18:48;5.15;;;2.90;;
43580;SDS011;29175;51.030;4.606;2022-08-19T11:21:22;8.05;;;3.00;;
43580;SDS011;29175;51.030;4.606;2022-08-19T11:23:50;6.10;;;3.05;;
43580;SDS011;29175;51.030;4.606;2022-08-19T11:26:18;7.50;;;3.67;;
43580;SDS011;29175;51.030;4.606;2022-08-19T11:28:47;7.82;;;3.63;;
43580;SDS011;29175;51.030;4.606;2022-08-19T11:33:45;8.52;;;3.17;;
43580;SDS011;29175;51.030;4.606;2022-08-19T11:36:16;7.43;;;3.00;;
43580;SDS011;29175;51.030;4.606;2022-08-19T11:38:43;6.28;;;3.30;;
43580;SDS011;29175;51.030;4.606;2022-08-19T11:41:09;5.60;;;3.00;;
43580;SDS011;29175;51.030;4.606;2022-08-19T11:43:36;9.65;;;3.88;;
43580;SDS011;29175;51.030;4.606;2022-08-19T11:46:06;6.40;;;3.45;;
43580;SDS011;29175;51.030;4.606;2022-08-19T11:48:35;11.65;;;4.13;;
43580;SDS011;29175;51.030;4.606;2022-08-19T11:51:03;11.65;;;3.55;;
43580;SDS011;29175;51.030;4.606;2022-08-19T11:53:31;10.20;;;3.88;;
43580;SDS011;29175;51.030;4.606;2022-08-19T11:55:57;6.05;;;3.17;;
43580;SDS011;29175;51.030;4.606;2022-08-19T11:58:23;6.60;;;3.15;;
43580;SDS011;29175;51.030;4.606;2022-08-19T12:00:49;9.48;;;3.38;;
43580;SDS011;29175;51.030;4.606;2022-08-19T12:03:16;8.20;;;3.40;;
43580;SDS011;29175;51.030;4.606;2022-08-19T12:05:43;7.50;;;3.63;;
43580;SDS011;29175;51.030;4.606;2022-08-19T12:08:09;7.07;;;3.53;;
43580;SDS011;29175;51.030;4.606;2022-08-19T12:10:37;9.15;;;3.33;;
43580;SDS011;29175;51.030;4.606;2022-08-19T12:13:03;6.35;;;2.95;;
43580;SDS011;29175;51.030;4.606;2022-08-19T12:15:29;9.95;;;3.30;;
43580;SDS011;29175;51.030;4.606;2022-08-19T12:17:56;7.00;;;2.80;;
43580;SDS011;29175;51.030;4.606;2022-08-19T12:20:23;11.18;;;3.20;;
43580;SDS011;29175;51.030;4.606;2022-08-19T12:22:49;6.53;;;3.08;;
43580;SDS011;29175;51.030;4.606;2022-08-19T12:25:15;5.80;;;2.55;;
43580;SDS011;29175;51.030;4.606;2022-08-19T12:27:42;4.40;;;2.45;;
43580;SDS011;29175;51.030;4.606;2022-08-19T12:30:10;6.43;;;2.90;;
43580;SDS011;29175;51.030;4.606;2022-08-19T12:32:38;4.97;;;2.55;;
43580;SDS011;29175;51.030;4.606;2022-08-19T12:35:04;5.90;;;2.67;;
43580;SDS011;29175;51.030;4.606;2022-08-19T12:37:31;5.40;;;2.50;;
43580;SDS011;29175;51.030;4.606;2022-08-19T12:39:57;4.05;;;2.20;;
43580;SDS011;29175;51.030;4.606;2022-08-19T12:42:24;4.22;;;2.38;;
43580;SDS011;29175;51.030;4.606;2022-08-19T12:44:53;5.30;;;2.28;;
43580;SDS011;29175;51.030;4.606;2022-08-19T12:47:19;8.18;;;2.35;;
43580;SDS011;29175;51.030;4.606;2022-08-19T12:49:45;6.15;;;2.55;;
43580;SDS011;29175;51.030;4.606;2022-08-19T12:52:11;6.80;;;2.33;;
43580;SDS011;29175;51.030;4.606;2022-08-19T12:54:40;5.28;;;2.53;;
43580;SDS011;29175;51.030;4.606;2022-08-19T12:57:07;7.50;;;2.78;;
43580;SDS011;29175;51.030;4.606;2022-08-19T12:59:37;11.25;;;3.70;;
43580;SDS011;29175;51.030;4.606;2022-08-19T13:02:04;10.32;;;3.15;;
43580;SDS011;29175;51.030;4.606;2022-08-19T13:04:32;9.93;;;3.65;;
43580;SDS011;29175;51.030;4.606;2022-08-19T13:07:01;8.77;;;3.42;;
43580;SDS011;29175;51.030;4.606;2022-08-19T13:09:27;9.65;;;3.53;;
43580;SDS011;29175;51.030;4.606;2022-08-19T13:17:11;8.80;;;3.88;;
43580;SDS011;29175;51.030;4.606;2022-08-19T13:19:39;9.15;;;3.40;;
43580;SDS011;29175;51.030;4.606;2022-08-19T13:22:05;7.15;;;3.42;;
43580;SDS011;29175;51.030;4.606;2022-08-19T13:24:31;9.98;;;3.70;;
43580;SDS011;29175;51.030;4.606;2022-08-19T13:26:58;8.73;;;3.90;;
43580;SDS011;29175;51.030;4.606;2022-08-19T13:29:28;8.85;;;3.58;;
43580;SDS011;29175;51.030;4.606;2022-08-19T13:32:12;8.88;;;3.97;;
43580;SDS011;29175;51.030;4.606;2022-08-19T13:34:57;9.00;;;4.13;;
43580;SDS011;29175;51.030;4.606;2022-08-19T13:37:23;12.60;;;4.05;;
43580;SDS011;29175;51.030;4.606;2022-08-19T13:40:08;6.95;;;3.60;;
43580;SDS011;29175;51.030;4.606;2022-08-19T13:42:39;8.57;;;3.70;;
43580;SDS011;29175;51.030;4.606;2022-08-19T13:45:05;9.02;;;3.13;;
43580;SDS011;29175;51.030;4.606;2022-08-19T13:47:32;7.13;;;3.70;;
43580;SDS011;29175;51.030;4.606;2022-08-19T13:49:59;7.68;;;3.30;;
43580;SDS011;29175;51.030;4.606;2022-08-19T13:54:54;6.18;;;3.28;;
43580;SDS011;29175;51.030;4.606;2022-08-19T13:57:21;7.32;;;3.35;;
43580;SDS011;29175;51.030;4.606;2022-08-19T13:59:47;9.57;;;2.92;;
43580;SDS011;29175;51.030;4.606;2022-08-19T14:02:13;6.47;;;3.00;;
43580;SDS011;29175;51.030;4.606;2022-08-19T14:07:09;5.43;;;1.95;;
43580;SDS011;29175;51.030;4.606;2022-08-19T14:09:35;2.17;;;1.42;;
43580;SDS011;29175;51.030;4.606;2022-08-19T14:12:01;2.60;;;1.80;;
43580;SDS011;29175;51.030;4.606;2022-08-19T14:14:27;5.28;;;1.90;;
43580;SDS011;29175;51.030;4.606;2022-08-19T14:16:54;4.15;;;1.95;;
43580;SDS011;29175;51.030;4.606;2022-08-19T14:19:21;4.57;;;2.00;;
43580;SDS011;29175;51.030;4.606;2022-08-19T14:21:46;8.60;;;2.35;;
43580;SDS011;29175;51.030;4.606;2022-08-19T14:24:12;2.53;;;1.63;;
43580;SDS011;29175;51.030;4.606;2022-08-19T14:26:38;7.53;;;2.45;;
43580;SDS011;29175;51.030;4.606;2022-08-19T14:29:04;2.65;;;1.55;;
43580;SDS011;29175;51.030;4.606;2022-08-19T14:31:29;2.33;;;1.70;;
43580;SDS011;29175;51.030;4.606;2022-08-19T14:33:56;9.68;;;1.98;;
43580;SDS011;29175;51.030;4.606;2022-08-19T14:36:22;5.20;;;1.92;;
43580;SDS011;29175;51.030;4.606;2022-08-19T14:38:47;4.22;;;1.65;;
43580;SDS011;29175;51.030;4.606;2022-08-19T14:43:42;3.17;;;1.50;;
43580;SDS011;29175;51.030;4.606;2022-08-19T14:46:12;2.50;;;1.40;;
43580;SDS011;29175;51.030;4.606;2022-08-19T14:48:40;4.43;;;1.75;;
43580;SDS011;29175;51.030;4.606;2022-08-19T14:51:08;2.40;;;1.35;;
43580;SDS011;29175;51.030;4.606;2022-08-19T14:53:36;1.77;;;1.33;;
43580;SDS011;29175;51.030;4.606;2022-08-19T14:56:06;2.97;;;1.38;;
43580;SDS011;29175;51.030;4.606;2022-08-19T14:58:38;2.45;;;1.50;;
43580;SDS011;29175;51.030;4.606;2022-08-19T15:01:07;4.68;;;1.42;;
43580;SDS011;29175;51.030;4.606;2022-08-19T15:06:04;4.22;;;1.38;;
43580;SDS011;29175;51.030;4.606;2022-08-19T15:08:32;3.67;;;1.00;;
43580;SDS011;29175;51.030;4.606;2022-08-19T15:11:00;2.13;;;1.10;;
43580;SDS011;29175;51.030;4.606;2022-08-19T15:13:29;4.00;;;0.93;;
43580;SDS011;29175;51.030;4.606;2022-08-19T15:15:55;2.90;;;1.20;;
43580;SDS011;29175;51.030;4.606;2022-08-19T15:18:22;1.48;;;0.90;;